Terminal Aerodrome Forecast
Issued by NWS

Home | Current Version | Previous Version | Text Only | Print | Product List | Glossary On
Versions: 1 2 3 4 5 6 7 8 9 10 11 12 13 14 15 16 17 18 19
000
FTUS41 KPBZ 301617 AAA
TAFFKL
TAF AMD
KFKL 301617Z 3016/3112 25008KT P6SM VCSH BKN015 BKN100
     FM302100 22005KT P6SM BKN050
     FM310800 VRB02KT 3SM BR SCT050
      AMD LTD TO CLD VIS AND WIND=

USA.gov is the U.S. government's official web portal to all federal, state and local government web resources and services.